createdAt,value
2022-10-01T00:04:44.420Z,99670.95
2022-10-01T00:09:47.872Z,99667.88
2022-10-01T00:14:51.018Z,99667.20
2022-10-01T00:19:53.913Z,99668.73
2022-10-01T00:24:56.729Z,99676.55
2022-10-01T00:30:00.382Z,99671.58
2022-10-01T00:35:04.114Z,99663.32
2022-10-01T00:40:07.535Z,99664.89
2022-10-01T00:45:13.079Z,99670.83
2022-10-01T00:50:21.410Z,99673.86
2022-10-01T00:55:28.935Z,99670.22
2022-10-01T01:00:32.283Z,99671.48
2022-10-01T01:05:35.525Z,99663.20
2022-10-01T01:11:02.020Z,99644.08
2022-10-01T01:16:39.827Z,99630.92
2022-10-01T01:21:48.846Z,99621.04
2022-10-01T01:27:19.772Z,99618.94
2022-10-01T01:32:48.832Z,99630.38
2022-10-01T01:37:58.567Z,99627.09
2022-10-01T01:43:08.291Z,99617.05
2022-10-01T01:48:13.069Z,99624.86
2022-10-01T01:53:16.199Z,99633.98
2022-10-01T01:58:19.626Z,99640.66
2022-10-01T02:03:26.300Z,99651.79
2022-10-01T02:08:48.015Z,99646.73
2022-10-01T02:14:21.024Z,99641.30
2022-10-01T02:19:57.335Z,99641.23
2022-10-01T02:25:04.220Z,99634.58
2022-10-01T02:30:11.008Z,99631.63
2022-10-01T02:35:21.436Z,99628.88
2022-10-01T02:40:27.987Z,99635.11
2022-10-01T02:45:35.423Z,99636.11
2022-10-01T02:50:48.108Z,99638.15
2022-10-01T02:55:53.594Z,99644.61
2022-10-01T03:00:57.034Z,99643.41
2022-10-01T03:06:00.216Z,99640.41
2022-10-01T03:11:03.294Z,99634.89
2022-10-01T03:16:06.497Z,99627.80
2022-10-01T03:21:09.515Z,99618.21
2022-10-01T03:26:12.723Z,99611.33
2022-10-01T03:31:15.353Z,99606.98
2022-10-01T03:36:18.561Z,99602.71
2022-10-01T03:41:21.600Z,99596.66
2022-10-01T03:46:26.294Z,99595.10
2022-10-01T03:51:30.352Z,99591.83
2022-10-01T03:56:33.709Z,99590.81
2022-10-01T04:01:36.802Z,99585.66
2022-10-01T04:06:40.674Z,99582.48
2022-10-01T04:11:46.901Z,99587.27
2022-10-01T04:16:53.036Z,99589.93
2022-10-01T04:21:56.286Z,99593.23
2022-10-01T04:26:59.400Z,99595.27
2022-10-01T04:32:04.018Z,99593.05
2022-10-01T04:37:06.665Z,99592.07
2022-10-01T04:42:10.874Z,99589.63
2022-10-01T04:47:13.743Z,99591.82
2022-10-01T04:52:16.963Z,99593.58
2022-10-01T04:57:23.333Z,99597.15
2022-10-01T05:02:26.350Z,99598.04
2022-10-01T05:07:29.243Z,99591.61
2022-10-01T05:12:35.592Z,99590.31
2022-10-01T05:17:39.084Z,99583.16
2022-10-01T05:22:41.592Z,99581.26
2022-10-01T05:27:44.031Z,99576.79
2022-10-01T05:32:57.591Z,99578.24
2022-10-01T05:38:03.076Z,99567.88
2022-10-01T05:43:05.416Z,99567.79
2022-10-01T05:48:09.253Z,99568.01
2022-10-01T05:53:14.109Z,99565.58
2022-10-01T05:58:17.773Z,99576.04
2022-10-01T06:03:22.666Z,99577.86
2022-10-01T06:08:27.021Z,99578.16
2022-10-01T06:13:29.478Z,99575.34
2022-10-01T06:18:32.176Z,99578.75
2022-10-01T06:23:36.633Z,99574.39
2022-10-01T06:28:39.313Z,99575.38
2022-10-01T06:33:42.063Z,99572.10
2022-10-01T06:38:48.539Z,99572.15
2022-10-01T06:43:51.156Z,99569.88
2022-10-01T06:48:56.271Z,99565.45
2022-10-01T06:53:58.654Z,99570.59
2022-10-01T06:59:01.061Z,99576.42
2022-10-01T07:04:03.795Z,99573.98
2022-10-01T07:09:07.480Z,99573.73
2022-10-01T07:14:10.575Z,99580.50
2022-10-01T07:19:13.114Z,99573.98
2022-10-01T07:24:16.707Z,99575.38
2022-10-01T07:29:20.073Z,99573.85
2022-10-01T07:34:24.849Z,99573.87
2022-10-01T07:39:27.447Z,99571.38
2022-10-01T07:44:31.169Z,99564.80
2022-10-01T07:49:33.772Z,99557.70
2022-10-01T07:54:39.380Z,99547.88
2022-10-01T07:59:42.646Z,99545.38
2022-10-01T08:05:08.764Z,99537.59
2022-10-01T08:10:14.502Z,99533.24
2022-10-01T08:15:17.700Z,99527.49
2022-10-01T08:20:21.322Z,99522.11
2022-10-01T08:25:28.459Z,99522.81
2022-10-01T08:30:31.206Z,99523.23
2022-10-01T08:35:39.202Z,99526.75
2022-10-01T08:40:47.019Z,99524.81
2022-10-01T08:45:54.469Z,99525.54
2022-10-01T08:51:05.619Z,99520.45
2022-10-01T08:56:19.135Z,99523.01
2022-10-01T09:01:22.172Z,99517.58
2022-10-01T09:06:28.061Z,99506.71
2022-10-01T09:11:41.574Z,99495.73
2022-10-01T09:16:56.039Z,99495.24
2022-10-01T09:22:04.493Z,99492.05
2022-10-01T09:27:15.256Z,99480.29
2022-10-01T09:32:25.255Z,99471.92
2022-10-01T09:37:45.413Z,99463.52
2022-10-01T09:42:51.839Z,99451.95
2022-10-01T09:48:04.598Z,99447.69
2022-10-01T09:53:16.651Z,99436.83
2022-10-01T09:58:24.365Z,99429.70
2022-10-01T10:03:30.760Z,99425.59
2022-10-01T10:08:40.311Z,99423.24
2022-10-01T10:13:55.362Z,99409.45
2022-10-01T10:19:02.504Z,99392.12
2022-10-01T10:24:06.287Z,99387.55
2022-10-01T10:29:30.815Z,99375.89
2022-10-01T10:34:39.574Z,99365.73
2022-10-01T10:39:47.020Z,99358.83
2022-10-01T10:44:54.550Z,99344.60
2022-10-01T10:50:07.707Z,99338.92
2022-10-01T10:55:19.091Z,99342.73
2022-10-01T11:00:25.811Z,99335.80
2022-10-01T11:05:33.494Z,99321.80
2022-10-01T11:10:43.606Z,99315.98
2022-10-01T11:16:28.522Z,99304.48
2022-10-01T11:21:53.615Z,99291.69
2022-10-01T11:27:18.288Z,99282.56
2022-10-01T11:32:45.699Z,99272.95
2022-10-01T11:38:03.693Z,99261.66
2022-10-01T11:43:30.281Z,99254.86
2022-10-01T11:48:50.963Z,99253.36
2022-10-01T11:54:03.708Z,99244.63
2022-10-01T11:59:21.145Z,99239.97
2022-10-01T12:04:40.241Z,99232.60
2022-10-01T12:09:55.013Z,99223.92
2022-10-01T12:15:23.026Z,99219.34
2022-10-01T12:20:48.498Z,99218.22
2022-10-01T12:26:04.028Z,99220.61
2022-10-01T12:31:25.334Z,99214.16
2022-10-01T12:36:37.785Z,99208.88
2022-10-01T12:42:16.653Z,99202.25
2022-10-01T12:47:28.176Z,99194.15
2022-10-01T12:53:04.747Z,99194.02
2022-10-01T12:58:30.300Z,99194.75
2022-10-01T13:03:46.945Z,99184.00
2022-10-01T13:09:19.715Z,99172.51
2022-10-01T13:14:22.620Z,99158.92
2022-10-01T13:19:46.205Z,99159.05
2022-10-01T13:25:01.464Z,99151.31
2022-10-01T13:30:22.600Z,99146.27
2022-10-01T13:35:56.393Z,99143.48
2022-10-01T13:41:03.517Z,99137.10
2022-10-01T13:46:09.215Z,99134.52
2022-10-01T13:51:19.936Z,99122.14
2022-10-01T13:56:34.951Z,99115.63
2022-10-01T14:01:42.126Z,99109.12
2022-10-01T14:07:07.075Z,99102.32
2022-10-01T14:12:39.748Z,99101.48
2022-10-01T14:17:45.070Z,99092.74
2022-10-01T14:23:09.205Z,99090.63
2022-10-01T14:28:48.038Z,99078.63
2022-10-01T14:34:19.334Z,99073.44
2022-10-01T14:39:24.076Z,99069.42
2022-10-01T14:44:36.507Z,99056.92
2022-10-01T14:49:38.139Z,99044.14
2022-10-01T14:54:49.286Z,99041.36
2022-10-01T14:59:53.045Z,99043.15
2022-10-01T15:04:58.028Z,99034.46
2022-10-01T15:10:08.328Z,99027.69
2022-10-01T15:15:34.422Z,99025.62
2022-10-01T15:20:38.976Z,99021.67
2022-10-01T15:25:44.957Z,99007.31
2022-10-01T15:30:47.528Z,99004.59
2022-10-01T15:35:49.484Z,98996.40
2022-10-01T15:41:13.895Z,98995.70
2022-10-01T15:46:24.958Z,98988.16
2022-10-01T15:51:28.027Z,98983.74
2022-10-01T15:56:30.084Z,98984.91
2022-10-01T16:01:38.824Z,98985.15
2022-10-01T16:06:47.807Z,98981.20
2022-10-01T16:12:02.108Z,98975.63
2022-10-01T16:17:17.037Z,98978.61
2022-10-01T16:22:20.313Z,98973.59
2022-10-01T16:27:28.737Z,98965.81
2022-10-01T16:32:32.148Z,98967.71
2022-10-01T16:37:35.667Z,98956.43
2022-10-01T16:42:41.761Z,98953.82
2022-10-01T16:47:46.645Z,98950.13
2022-10-01T16:52:55.218Z,98957.04
2022-10-01T16:57:57.559Z,98954.36
2022-10-01T17:03:00.875Z,98947.30
2022-10-01T17:08:12.259Z,98948.86
2022-10-01T17:13:39.889Z,98943.64
2022-10-01T17:24:49.649Z,98937.68
2022-10-01T17:30:17.030Z,98935.13
2022-10-01T17:35:41.136Z,98928.17
2022-10-01T17:40:56.733Z,98930.14
2022-10-01T17:46:08.885Z,98919.98
2022-10-01T17:51:18.718Z,98923.62
2022-10-01T17:56:26.997Z,98921.52
2022-10-01T18:01:33.335Z,98923.52
2022-10-01T18:06:40.900Z,98920.89
2022-10-01T18:11:44.743Z,98918.27
2022-10-01T18:16:50.914Z,98917.10
2022-10-01T18:21:54.823Z,98917.48
2022-10-01T18:26:59.413Z,98929.88
2022-10-01T18:32:12.531Z,98950.93
2022-10-01T18:37:37.803Z,98970.73
2022-10-01T18:42:57.305Z,98975.07
2022-10-01T18:48:11.010Z,98979.86
2022-10-01T18:53:28.719Z,98980.71
2022-10-01T18:58:46.795Z,98982.92
2022-10-01T19:04:18.678Z,98991.71
2022-10-01T19:09:43.942Z,98993.96
2022-10-01T19:15:05.657Z,98992.30
2022-10-01T19:20:14.365Z,98990.66
2022-10-01T19:25:35.754Z,98990.35
2022-10-01T19:30:57.031Z,98991.48
2022-10-01T19:36:00.634Z,98986.80
2022-10-01T19:41:23.759Z,98984.91
2022-10-01T19:46:37.014Z,98987.54
2022-10-01T19:51:45.398Z,98986.86
2022-10-01T19:56:57.746Z,98989.73
2022-10-01T20:02:16.075Z,98989.12
2022-10-01T20:07:46.873Z,98988.67
2022-10-01T20:12:56.225Z,98990.66
2022-10-01T20:18:14.384Z,98991.55
2022-10-01T20:23:42.516Z,98989.40
2022-10-01T20:29:08.279Z,98994.02
2022-10-01T20:34:30.225Z,98997.00
2022-10-01T20:39:48.421Z,99001.31
2022-10-01T20:44:54.318Z,99003.11
2022-10-01T20:50:12.326Z,98999.89
2022-10-01T20:55:28.767Z,99001.19
2022-10-01T21:00:33.897Z,98998.62
2022-10-01T21:05:52.474Z,98998.23
2022-10-01T21:10:59.333Z,99003.77
2022-10-01T21:16:29.593Z,99013.16
2022-10-01T21:21:51.372Z,99013.70
2022-10-01T21:27:04.404Z,99014.45
2022-10-01T21:32:47.252Z,99017.68
2022-10-01T21:38:28.876Z,99017.20
2022-10-01T21:44:00.884Z,99017.26
2022-10-01T21:49:33.161Z,99022.45
2022-10-01T21:54:49.289Z,99023.13
2022-10-01T21:59:51.423Z,99026.22
2022-10-01T22:04:59.089Z,99027.89
2022-10-01T22:10:07.863Z,99026.45
2022-10-01T22:15:39.285Z,99026.23
2022-10-01T22:20:43.428Z,99029.82
2022-10-01T22:25:58.272Z,99031.66
2022-10-01T22:31:02.941Z,99035.00
2022-10-01T22:36:15.502Z,99030.03
2022-10-01T22:41:45.538Z,99027.83
2022-10-01T22:47:27.716Z,99032.37
2022-10-01T22:53:16.018Z,99030.23
2022-10-01T22:58:38.704Z,99035.30
2022-10-01T23:04:25.382Z,99041.92
2022-10-01T23:09:40.010Z,99047.94
2022-10-01T23:15:00.988Z,99057.44
2022-10-01T23:20:30.601Z,99059.54
2022-10-01T23:25:49.728Z,99062.45
2022-10-01T23:31:17.561Z,99065.42
2022-10-01T23:36:45.201Z,99064.29
2022-10-01T23:41:59.351Z,99061.84
2022-10-01T23:47:12.384Z,99062.92
2022-10-01T23:52:19.676Z,99074.86
2022-10-01T23:57:35.352Z,99084.80
